sensor_id;sensor_type;location;lat;lon;timestamp;temperature;humidity
26262;DHT22;13988;52.446;13.280;2022-07-31T00:01:53;17.70;99.90
26262;DHT22;13988;52.446;13.280;2022-07-31T00:04:20;17.30;99.90
26262;DHT22;13988;52.446;13.280;2022-07-31T00:06:48;17.10;99.90
26262;DHT22;13988;52.446;13.280;2022-07-31T00:09:14;17.20;99.90
26262;DHT22;13988;52.446;13.280;2022-07-31T00:11:39;17.00;99.90
26262;DHT22;13988;52.446;13.280;2022-07-31T00:14:07;17.10;99.90
26262;DHT22;13988;52.446;13.280;2022-07-31T00:16:33;17.50;99.90
26262;DHT22;13988;52.446;13.280;2022-07-31T00:19:14;17.70;99.90
26262;DHT22;13988;52.446;13.280;2022-07-31T00:21:41;17.50;99.90
26262;DHT22;13988;52.446;13.280;2022-07-31T00:24:07;17.40;99.90
26262;DHT22;13988;52.446;13.280;2022-07-31T00:26:39;17.50;99.90
26262;DHT22;13988;52.446;13.280;2022-07-31T00:29:05;17.80;99.90
26262;DHT22;13988;52.446;13.280;2022-07-31T00:31:31;17.80;99.90
26262;DHT22;13988;52.446;13.280;2022-07-31T00:33:57;17.60;99.90
26262;DHT22;13988;52.446;13.280;2022-07-31T00:36:23;17.50;99.90
26262;DHT22;13988;52.446;13.280;2022-07-31T00:38:49;17.00;99.90
26262;DHT22;13988;52.446;13.280;2022-07-31T00:41:14;16.80;99.90
26262;DHT22;13988;52.446;13.280;2022-07-31T00:43:40;16.80;99.90
26262;DHT22;13988;52.446;13.280;2022-07-31T00:46:06;16.90;99.90
26262;DHT22;13988;52.446;13.280;2022-07-31T00:48:32;16.90;99.90
26262;DHT22;13988;52.446;13.280;2022-07-31T00:50:58;16.80;99.90
26262;DHT22;13988;52.446;13.280;2022-07-31T00:53:24;16.90;99.90
26262;DHT22;13988;52.446;13.280;2022-07-31T00:55:50;17.40;99.90
26262;DHT22;13988;52.446;13.280;2022-07-31T00:58:15;17.20;99.90
26262;DHT22;13988;52.446;13.280;2022-07-31T01:00:41;16.90;99.90
26262;DHT22;13988;52.446;13.280;2022-07-31T01:03:07;16.80;99.90
26262;DHT22;13988;52.446;13.280;2022-07-31T01:05:33;17.10;99.90
26262;DHT22;13988;52.446;13.280;2022-07-31T01:07:58;17.00;99.90
26262;DHT22;13988;52.446;13.280;2022-07-31T01:13:13;16.40;99.90
26262;DHT22;13988;52.446;13.280;2022-07-31T01:15:41;16.80;99.90
26262;DHT22;13988;52.446;13.280;2022-07-31T01:18:09;17.10;99.90
26262;DHT22;13988;52.446;13.280;2022-07-31T01:20:36;17.10;99.90
26262;DHT22;13988;52.446;13.280;2022-07-31T01:23:16;16.70;99.90
26262;DHT22;13988;52.446;13.280;2022-07-31T01:31:33;16.70;99.90
26262;DHT22;13988;52.446;13.280;2022-07-31T01:34:23;16.60;99.90
26262;DHT22;13988;52.446;13.280;2022-07-31T01:36:58;16.70;99.90
26262;DHT22;13988;52.446;13.280;2022-07-31T01:39:27;16.60;99.90
26262;DHT22;13988;52.446;13.280;2022-07-31T01:41:55;16.30;99.90
26262;DHT22;13988;52.446;13.280;2022-07-31T01:44:24;16.20;99.90
26262;DHT22;13988;52.446;13.280;2022-07-31T01:46:52;16.20;99.90
26262;DHT22;13988;52.446;13.280;2022-07-31T01:49:18;16.60;99.90
26262;DHT22;13988;52.446;13.280;2022-07-31T01:51:46;16.70;99.90
26262;DHT22;13988;52.446;13.280;2022-07-31T01:54:13;16.40;99.90
26262;DHT22;13988;52.446;13.280;2022-07-31T01:56:40;16.30;99.90
26262;DHT22;13988;52.446;13.280;2022-07-31T01:59:08;16.40;99.90
26262;DHT22;13988;52.446;13.280;2022-07-31T02:01:36;16.50;99.90
26262;DHT22;13988;52.446;13.280;2022-07-31T02:04:04;16.40;99.90
26262;DHT22;13988;52.446;13.280;2022-07-31T02:06:30;16.10;99.90
26262;DHT22;13988;52.446;13.280;2022-07-31T02:08:57;15.70;99.90
26262;DHT22;13988;52.446;13.280;2022-07-31T02:11:24;15.70;99.90
26262;DHT22;13988;52.446;13.280;2022-07-31T02:13:50;16.20;99.90
26262;DHT22;13988;52.446;13.280;2022-07-31T02:16:18;16.00;99.90
26262;DHT22;13988;52.446;13.280;2022-07-31T02:18:47;15.90;99.90
26262;DHT22;13988;52.446;13.280;2022-07-31T02:21:14;16.30;99.90
26262;DHT22;13988;52.446;13.280;2022-07-31T02:23:40;16.10;99.90
26262;DHT22;13988;52.446;13.280;2022-07-31T02:26:06;16.00;99.90
26262;DHT22;13988;52.446;13.280;2022-07-31T02:28:35;16.10;99.90
26262;DHT22;13988;52.446;13.280;2022-07-31T02:31:10;16.30;99.90
26262;DHT22;13988;52.446;13.280;2022-07-31T02:33:36;16.10;99.90
26262;DHT22;13988;52.446;13.280;2022-07-31T02:36:03;16.20;99.90
26262;DHT22;13988;52.446;13.280;2022-07-31T02:38:31;16.20;99.90
26262;DHT22;13988;52.446;13.280;2022-07-31T02:41:01;16.00;99.90
26262;DHT22;13988;52.446;13.280;2022-07-31T02:43:30;15.80;99.90
26262;DHT22;13988;52.446;13.280;2022-07-31T02:45:57;15.40;99.90
26262;DHT22;13988;52.446;13.280;2022-07-31T02:48:24;15.30;99.90
26262;DHT22;13988;52.446;13.280;2022-07-31T02:50:50;15.70;99.90
26262;DHT22;13988;52.446;13.280;2022-07-31T02:53:16;15.30;99.90
26262;DHT22;13988;52.446;13.280;2022-07-31T02:55:45;15.10;99.90
26262;DHT22;13988;52.446;13.280;2022-07-31T02:58:11;15.20;99.90
26262;DHT22;13988;52.446;13.280;2022-07-31T03:00:37;15.60;99.90
26262;DHT22;13988;52.446;13.280;2022-07-31T03:03:03;15.80;99.90
26262;DHT22;13988;52.446;13.280;2022-07-31T03:05:29;15.70;99.90
26262;DHT22;13988;52.446;13.280;2022-07-31T03:07:56;15.40;99.90
26262;DHT22;13988;52.446;13.280;2022-07-31T03:10:21;15.80;99.90
26262;DHT22;13988;52.446;13.280;2022-07-31T03:12:50;15.90;99.90
26262;DHT22;13988;52.446;13.280;2022-07-31T03:15:19;15.60;99.90
26262;DHT22;13988;52.446;13.280;2022-07-31T03:17:45;15.60;99.90
26262;DHT22;13988;52.446;13.280;2022-07-31T03:20:13;15.80;99.90
26262;DHT22;13988;52.446;13.280;2022-07-31T03:22:40;15.70;99.90
26262;DHT22;13988;52.446;13.280;2022-07-31T03:25:06;15.50;99.90
26262;DHT22;13988;52.446;13.280;2022-07-31T03:27:32;15.80;99.90
26262;DHT22;13988;52.446;13.280;2022-07-31T03:29:58;15.70;99.90
26262;DHT22;13988;52.446;13.280;2022-07-31T03:32:24;15.50;99.90
26262;DHT22;13988;52.446;13.280;2022-07-31T03:34:50;15.80;99.90
26262;DHT22;13988;52.446;13.280;2022-07-31T03:37:15;16.00;99.90
26262;DHT22;13988;52.446;13.280;2022-07-31T03:39:41;15.80;99.90
26262;DHT22;13988;52.446;13.280;2022-07-31T03:42:10;15.90;99.90
26262;DHT22;13988;52.446;13.280;2022-07-31T03:44:37;15.90;99.90
26262;DHT22;13988;52.446;13.280;2022-07-31T03:47:04;15.80;99.90
26262;DHT22;13988;52.446;13.280;2022-07-31T03:49:31;15.70;99.90
26262;DHT22;13988;52.446;13.280;2022-07-31T03:51:57;15.60;99.90
26262;DHT22;13988;52.446;13.280;2022-07-31T03:54:23;15.70;99.90
26262;DHT22;13988;52.446;13.280;2022-07-31T03:56:50;15.70;99.90
26262;DHT22;13988;52.446;13.280;2022-07-31T03:59:17;15.50;99.90
26262;DHT22;13988;52.446;13.280;2022-07-31T04:01:44;15.60;99.90
26262;DHT22;13988;52.446;13.280;2022-07-31T04:04:10;15.70;99.90
26262;DHT22;13988;52.446;13.280;2022-07-31T04:06:36;15.60;99.90
26262;DHT22;13988;52.446;13.280;2022-07-31T04:09:02;15.60;99.90
26262;DHT22;13988;52.446;13.280;2022-07-31T04:11:28;15.70;99.90
26262;DHT22;13988;52.446;13.280;2022-07-31T04:13:54;15.80;99.90
26262;DHT22;13988;52.446;13.280;2022-07-31T04:16:20;15.80;99.90
26262;DHT22;13988;52.446;13.280;2022-07-31T04:18:46;15.80;99.90
26262;DHT22;13988;52.446;13.280;2022-07-31T04:21:12;15.70;99.90
26262;DHT22;13988;52.446;13.280;2022-07-31T04:23:38;15.50;99.90
26262;DHT22;13988;52.446;13.280;2022-07-31T04:26:04;15.80;99.90
26262;DHT22;13988;52.446;13.280;2022-07-31T04:28:30;15.80;99.90
26262;DHT22;13988;52.446;13.280;2022-07-31T04:30:55;15.80;99.90
26262;DHT22;13988;52.446;13.280;2022-07-31T04:33:21;15.90;99.90
26262;DHT22;13988;52.446;13.280;2022-07-31T04:35:47;15.90;99.90
26262;DHT22;13988;52.446;13.280;2022-07-31T04:38:13;16.00;99.90
26262;DHT22;13988;52.446;13.280;2022-07-31T04:40:41;15.90;99.90
26262;DHT22;13988;52.446;13.280;2022-07-31T04:43:07;16.00;99.90
26262;DHT22;13988;52.446;13.280;2022-07-31T04:45:32;16.10;99.90
26262;DHT22;13988;52.446;13.280;2022-07-31T04:47:58;16.10;99.90
26262;DHT22;13988;52.446;13.280;2022-07-31T04:50:24;16.00;99.90
26262;DHT22;13988;52.446;13.280;2022-07-31T04:52:49;16.20;99.90
26262;DHT22;13988;52.446;13.280;2022-07-31T04:55:15;16.10;99.90
26262;DHT22;13988;52.446;13.280;2022-07-31T04:57:41;16.10;99.90
26262;DHT22;13988;52.446;13.280;2022-07-31T05:00:07;16.20;99.90
26262;DHT22;13988;52.446;13.280;2022-07-31T05:02:35;16.20;99.90
26262;DHT22;13988;52.446;13.280;2022-07-31T05:05:00;16.30;99.90
26262;DHT22;13988;52.446;13.280;2022-07-31T05:07:26;16.40;99.90
26262;DHT22;13988;52.446;13.280;2022-07-31T05:09:52;16.40;99.90
26262;DHT22;13988;52.446;13.280;2022-07-31T05:12:18;16.40;99.90
26262;DHT22;13988;52.446;13.280;2022-07-31T05:14:43;16.50;99.90
26262;DHT22;13988;52.446;13.280;2022-07-31T05:17:09;16.60;99.90
26262;DHT22;13988;52.446;13.280;2022-07-31T05:19:34;16.70;99.90
26262;DHT22;13988;52.446;13.280;2022-07-31T05:22:00;16.70;99.90
26262;DHT22;13988;52.446;13.280;2022-07-31T05:24:26;16.80;99.90
26262;DHT22;13988;52.446;13.280;2022-07-31T05:26:51;16.80;99.90
26262;DHT22;13988;52.446;13.280;2022-07-31T05:29:17;16.90;99.90
26262;DHT22;13988;52.446;13.280;2022-07-31T05:31:43;17.00;99.90
26262;DHT22;13988;52.446;13.280;2022-07-31T05:34:09;17.10;99.90
26262;DHT22;13988;52.446;13.280;2022-07-31T05:36:35;17.20;99.90
26262;DHT22;13988;52.446;13.280;2022-07-31T05:39:00;17.30;99.90
26262;DHT22;13988;52.446;13.280;2022-07-31T05:41:26;17.30;99.90
26262;DHT22;13988;52.446;13.280;2022-07-31T05:43:54;17.40;99.90
26262;DHT22;13988;52.446;13.280;2022-07-31T05:46:19;17.50;99.90
26262;DHT22;13988;52.446;13.280;2022-07-31T05:48:45;17.60;99.90
26262;DHT22;13988;52.446;13.280;2022-07-31T05:51:12;17.70;99.90
26262;DHT22;13988;52.446;13.280;2022-07-31T05:53:40;17.80;99.90
26262;DHT22;13988;52.446;13.280;2022-07-31T05:56:06;17.80;99.90
26262;DHT22;13988;52.446;13.280;2022-07-31T05:58:32;17.90;99.90
26262;DHT22;13988;52.446;13.280;2022-07-31T06:00:59;18.00;99.90
26262;DHT22;13988;52.446;13.280;2022-07-31T06:03:25;18.20;99.90
26262;DHT22;13988;52.446;13.280;2022-07-31T06:05:55;18.30;99.90
26262;DHT22;13988;52.446;13.280;2022-07-31T06:08:21;18.50;99.90
26262;DHT22;13988;52.446;13.280;2022-07-31T06:10:47;18.90;99.90
26262;DHT22;13988;52.446;13.280;2022-07-31T06:13:13;21.10;99.90
26262;DHT22;13988;52.446;13.280;2022-07-31T06:15:42;22.60;99.90
26262;DHT22;13988;52.446;13.280;2022-07-31T06:18:08;23.50;99.90
26262;DHT22;13988;52.446;13.280;2022-07-31T06:20:34;23.20;99.90
26262;DHT22;13988;52.446;13.280;2022-07-31T06:22:59;23.70;99.90
26262;DHT22;13988;52.446;13.280;2022-07-31T06:25:31;23.10;99.90
26262;DHT22;13988;52.446;13.280;2022-07-31T06:27:57;23.80;99.90
26262;DHT22;13988;52.446;13.280;2022-07-31T06:30:23;24.00;99.90
26262;DHT22;13988;52.446;13.280;2022-07-31T06:32:48;24.60;99.90
26262;DHT22;13988;52.446;13.280;2022-07-31T06:35:14;24.80;99.90
26262;DHT22;13988;52.446;13.280;2022-07-31T06:37:40;25.30;99.90
26262;DHT22;13988;52.446;13.280;2022-07-31T06:40:05;26.10;99.90
26262;DHT22;13988;52.446;13.280;2022-07-31T06:42:31;27.90;99.90
26262;DHT22;13988;52.446;13.280;2022-07-31T06:44:57;26.40;99.90
26262;DHT22;13988;52.446;13.280;2022-07-31T06:47:24;25.70;99.90
26262;DHT22;13988;52.446;13.280;2022-07-31T06:49:50;25.80;99.90
26262;DHT22;13988;52.446;13.280;2022-07-31T06:52:17;26.80;99.90
26262;DHT22;13988;52.446;13.280;2022-07-31T06:54:43;27.40;99.00
26262;DHT22;13988;52.446;13.280;2022-07-31T06:57:09;27.50;98.90
26262;DHT22;13988;52.446;13.280;2022-07-31T06:59:35;28.70;95.00
26262;DHT22;13988;52.446;13.280;2022-07-31T07:02:01;28.50;87.70
26262;DHT22;13988;52.446;13.280;2022-07-31T07:04:26;29.80;88.20
26262;DHT22;13988;52.446;13.280;2022-07-31T07:06:52;28.80;86.30
26262;DHT22;13988;52.446;13.280;2022-07-31T07:09:17;27.80;90.50
26262;DHT22;13988;52.446;13.280;2022-07-31T07:11:43;28.20;90.80
26262;DHT22;13988;52.446;13.280;2022-07-31T07:14:09;28.10;90.10
26262;DHT22;13988;52.446;13.280;2022-07-31T07:16:34;26.90;92.90
26262;DHT22;13988;52.446;13.280;2022-07-31T07:19:00;28.10;93.10
26262;DHT22;13988;52.446;13.280;2022-07-31T07:21:26;29.00;90.10
26262;DHT22;13988;52.446;13.280;2022-07-31T07:23:51;29.70;85.50
26262;DHT22;13988;52.446;13.280;2022-07-31T07:26:17;29.00;88.10
26262;DHT22;13988;52.446;13.280;2022-07-31T07:28:44;28.60;88.90
26262;DHT22;13988;52.446;13.280;2022-07-31T07:31:09;28.30;90.60
26262;DHT22;13988;52.446;13.280;2022-07-31T07:33:35;28.60;91.10
26262;DHT22;13988;52.446;13.280;2022-07-31T07:36:01;28.00;91.90
26262;DHT22;13988;52.446;13.280;2022-07-31T07:38:27;28.80;90.60
26262;DHT22;13988;52.446;13.280;2022-07-31T07:40:52;29.40;85.60
26262;DHT22;13988;52.446;13.280;2022-07-31T07:43:18;28.40;86.10
26262;DHT22;13988;52.446;13.280;2022-07-31T07:45:44;28.20;90.70
26262;DHT22;13988;52.446;13.280;2022-07-31T07:48:09;28.60;87.00
26262;DHT22;13988;52.446;13.280;2022-07-31T07:50:35;28.80;86.50
26262;DHT22;13988;52.446;13.280;2022-07-31T07:53:01;27.60;90.40
26262;DHT22;13988;52.446;13.280;2022-07-31T07:55:26;27.70;88.90
26262;DHT22;13988;52.446;13.280;2022-07-31T07:57:52;26.40;92.70
26262;DHT22;13988;52.446;13.280;2022-07-31T08:00:18;28.10;91.80
26262;DHT22;13988;52.446;13.280;2022-07-31T08:02:46;28.60;90.30
26262;DHT22;13988;52.446;13.280;2022-07-31T08:05:13;27.50;90.70
26262;DHT22;13988;52.446;13.280;2022-07-31T08:07:39;27.00;94.20
26262;DHT22;13988;52.446;13.280;2022-07-31T08:10:06;25.60;94.20
26262;DHT22;13988;52.446;13.280;2022-07-31T08:12:32;25.20;99.40
26262;DHT22;13988;52.446;13.280;2022-07-31T08:14:58;25.10;99.90
26262;DHT22;13988;52.446;13.280;2022-07-31T08:17:24;25.00;99.90
26262;DHT22;13988;52.446;13.280;2022-07-31T08:19:50;25.00;99.90
26262;DHT22;13988;52.446;13.280;2022-07-31T08:22:16;24.50;99.90
26262;DHT22;13988;52.446;13.280;2022-07-31T08:24:42;24.30;99.90
26262;DHT22;13988;52.446;13.280;2022-07-31T08:27:08;24.30;99.90
26262;DHT22;13988;52.446;13.280;2022-07-31T08:29:49;24.30;99.90
26262;DHT22;13988;52.446;13.280;2022-07-31T08:32:15;24.00;99.90
26262;DHT22;13988;52.446;13.280;2022-07-31T08:34:42;24.20;99.90
26262;DHT22;13988;52.446;13.280;2022-07-31T08:37:08;24.00;99.90
26262;DHT22;13988;52.446;13.280;2022-07-31T08:39:34;24.10;99.90
26262;DHT22;13988;52.446;13.280;2022-07-31T08:42:07;24.50;99.90
26262;DHT22;13988;52.446;13.280;2022-07-31T08:44:39;24.20;99.90
26262;DHT22;13988;52.446;13.280;2022-07-31T08:47:07;24.50;99.90
26262;DHT22;13988;52.446;13.280;2022-07-31T08:49:39;24.60;99.90
26262;DHT22;13988;52.446;13.280;2022-07-31T08:52:08;24.60;99.90
26262;DHT22;13988;52.446;13.280;2022-07-31T08:54:35;24.40;99.90
26262;DHT22;13988;52.446;13.280;2022-07-31T08:57:02;24.10;99.90
26262;DHT22;13988;52.446;13.280;2022-07-31T08:59:28;24.30;99.90
26262;DHT22;13988;52.446;13.280;2022-07-31T09:01:54;24.30;99.90
26262;DHT22;13988;52.446;13.280;2022-07-31T09:04:23;24.50;99.90
26262;DHT22;13988;52.446;13.280;2022-07-31T09:06:49;24.20;99.90
26262;DHT22;13988;52.446;13.280;2022-07-31T09:09:16;24.20;99.90
26262;DHT22;13988;52.446;13.280;2022-07-31T09:11:47;24.30;99.90
26262;DHT22;13988;52.446;13.280;2022-07-31T09:14:22;24.40;99.90
26262;DHT22;13988;52.446;13.280;2022-07-31T09:16:48;24.80;99.90
26262;DHT22;13988;52.446;13.280;2022-07-31T09:19:14;25.00;99.90
26262;DHT22;13988;52.446;13.280;2022-07-31T09:21:44;25.10;99.90
26262;DHT22;13988;52.446;13.280;2022-07-31T09:24:13;25.50;99.90
26262;DHT22;13988;52.446;13.280;2022-07-31T09:26:59;25.70;99.90
26262;DHT22;13988;52.446;13.280;2022-07-31T09:29:41;25.50;99.90
26262;DHT22;13988;52.446;13.280;2022-07-31T09:34:38;25.10;99.90
26262;DHT22;13988;52.446;13.280;2022-07-31T09:37:12;25.40;99.90
26262;DHT22;13988;52.446;13.280;2022-07-31T09:39:38;25.30;99.90
26262;DHT22;13988;52.446;13.280;2022-07-31T09:42:05;24.50;99.90
26262;DHT22;13988;52.446;13.280;2022-07-31T09:44:38;24.80;99.90
26262;DHT22;13988;52.446;13.280;2022-07-31T09:47:04;25.40;99.90
26262;DHT22;13988;52.446;13.280;2022-07-31T09:49:33;25.90;99.90
26262;DHT22;13988;52.446;13.280;2022-07-31T09:51:59;25.80;99.90
26262;DHT22;13988;52.446;13.280;2022-07-31T09:54:26;25.30;99.90
26262;DHT22;13988;52.446;13.280;2022-07-31T09:56:53;25.00;99.90
26262;DHT22;13988;52.446;13.280;2022-07-31T09:59:19;25.30;99.90
26262;DHT22;13988;52.446;13.280;2022-07-31T10:01:46;25.30;99.90
26262;DHT22;13988;52.446;13.280;2022-07-31T10:04:17;25.30;99.90
26262;DHT22;13988;52.446;13.280;2022-07-31T10:06:44;25.00;99.90
26262;DHT22;13988;52.446;13.280;2022-07-31T10:09:11;25.10;99.90
26262;DHT22;13988;52.446;13.280;2022-07-31T10:11:38;25.40;99.90
26262;DHT22;13988;52.446;13.280;2022-07-31T10:14:04;25.80;99.90
26262;DHT22;13988;52.446;13.280;2022-07-31T10:16:38;25.80;99.90
26262;DHT22;13988;52.446;13.280;2022-07-31T10:19:04;26.10;99.90
26262;DHT22;13988;52.446;13.280;2022-07-31T10:21:49;25.70;99.90
26262;DHT22;13988;52.446;13.280;2022-07-31T10:24:19;25.90;99.90
26262;DHT22;13988;52.446;13.280;2022-07-31T10:26:45;25.80;99.90
26262;DHT22;13988;52.446;13.280;2022-07-31T10:29:11;26.00;99.90
26262;DHT22;13988;52.446;13.280;2022-07-31T10:31:37;26.20;97.50
26262;DHT22;13988;52.446;13.280;2022-07-31T10:34:03;26.20;96.50
26262;DHT22;13988;52.446;13.280;2022-07-31T10:36:34;26.50;98.90
26262;DHT22;13988;52.446;13.280;2022-07-31T10:41:55;26.40;98.10
26262;DHT22;13988;52.446;13.280;2022-07-31T10:44:37;25.60;99.80
26262;DHT22;13988;52.446;13.280;2022-07-31T10:47:13;25.50;99.90
26262;DHT22;13988;52.446;13.280;2022-07-31T10:49:43;25.70;99.90
26262;DHT22;13988;52.446;13.280;2022-07-31T10:52:09;25.70;99.90
26262;DHT22;13988;52.446;13.280;2022-07-31T10:54:45;25.70;99.90
26262;DHT22;13988;52.446;13.280;2022-07-31T10:57:24;26.10;99.90
26262;DHT22;13988;52.446;13.280;2022-07-31T10:59:50;26.00;99.90
26262;DHT22;13988;52.446;13.280;2022-07-31T11:02:33;25.80;99.90
26262;DHT22;13988;52.446;13.280;2022-07-31T11:05:06;25.70;99.90
26262;DHT22;13988;52.446;13.280;2022-07-31T11:07:32;25.60;99.90
26262;DHT22;13988;52.446;13.280;2022-07-31T11:10:11;25.80;99.90
26262;DHT22;13988;52.446;13.280;2022-07-31T11:12:38;27.00;99.90
26262;DHT22;13988;52.446;13.280;2022-07-31T11:15:15;27.40;98.80
26262;DHT22;13988;52.446;13.280;2022-07-31T11:17:41;26.90;96.40
26262;DHT22;13988;52.446;13.280;2022-07-31T11:20:17;26.90;96.90
26262;DHT22;13988;52.446;13.280;2022-07-31T11:22:52;26.70;97.10
26262;DHT22;13988;52.446;13.280;2022-07-31T11:25:18;26.90;95.10
26262;DHT22;13988;52.446;13.280;2022-07-31T11:27:43;26.90;98.20
26262;DHT22;13988;52.446;13.280;2022-07-31T11:30:10;26.70;95.50
26262;DHT22;13988;52.446;13.280;2022-07-31T11:32:35;26.10;95.90
26262;DHT22;13988;52.446;13.280;2022-07-31T11:35:01;26.30;96.20
26262;DHT22;13988;52.446;13.280;2022-07-31T11:37:29;27.40;92.30
26262;DHT22;13988;52.446;13.280;2022-07-31T11:39:55;28.30;93.60
26262;DHT22;13988;52.446;13.280;2022-07-31T11:42:22;29.60;88.20
26262;DHT22;13988;52.446;13.280;2022-07-31T11:44:49;28.90;78.70
26262;DHT22;13988;52.446;13.280;2022-07-31T11:47:14;27.60;82.90
26262;DHT22;13988;52.446;13.280;2022-07-31T11:49:40;27.00;86.40
26262;DHT22;13988;52.446;13.280;2022-07-31T11:52:08;26.70;89.20
26262;DHT22;13988;52.446;13.280;2022-07-31T11:54:36;26.50;90.60
26262;DHT22;13988;52.446;13.280;2022-07-31T11:57:02;26.30;90.40
26262;DHT22;13988;52.446;13.280;2022-07-31T11:59:38;26.10;91.70
26262;DHT22;13988;52.446;13.280;2022-07-31T12:02:11;26.60;91.70
26262;DHT22;13988;52.446;13.280;2022-07-31T12:04:38;26.40;90.90
26262;DHT22;13988;52.446;13.280;2022-07-31T12:07:06;26.10;91.60
26262;DHT22;13988;52.446;13.280;2022-07-31T12:09:33;26.00;90.90
26262;DHT22;13988;52.446;13.280;2022-07-31T12:11:59;26.10;92.00
26262;DHT22;13988;52.446;13.280;2022-07-31T12:14:38;26.10;92.50
26262;DHT22;13988;52.446;13.280;2022-07-31T12:17:05;26.20;93.10
26262;DHT22;13988;52.446;13.280;2022-07-31T12:19:33;25.90;93.00
26262;DHT22;13988;52.446;13.280;2022-07-31T12:22:00;25.80;93.60
26262;DHT22;13988;52.446;13.280;2022-07-31T12:24:26;25.90;93.90
26262;DHT22;13988;52.446;13.280;2022-07-31T12:26:56;26.10;94.60
26262;DHT22;13988;52.446;13.280;2022-07-31T12:29:32;26.20;94.00
26262;DHT22;13988;52.446;13.280;2022-07-31T12:31:59;26.10;94.80
26262;DHT22;13988;52.446;13.280;2022-07-31T12:34:42;26.00;94.30
26262;DHT22;13988;52.446;13.280;2022-07-31T12:37:13;26.40;93.20
26262;DHT22;13988;52.446;13.280;2022-07-31T12:42:32;28.70;88.80
26262;DHT22;13988;52.446;13.280;2022-07-31T12:45:00;30.10;79.00
26262;DHT22;13988;52.446;13.280;2022-07-31T12:47:28;29.20;77.70
26262;DHT22;13988;52.446;13.280;2022-07-31T12:49:55;28.60;81.70
26262;DHT22;13988;52.446;13.280;2022-07-31T12:52:21;27.50;83.10
26262;DHT22;13988;52.446;13.280;2022-07-31T12:54:48;28.70;79.00
26262;DHT22;13988;52.446;13.280;2022-07-31T12:57:13;28.50;78.60
26262;DHT22;13988;52.446;13.280;2022-07-31T12:59:39;28.40;77.90
26262;DHT22;13988;52.446;13.280;2022-07-31T13:02:05;29.00;78.70
26262;DHT22;13988;52.446;13.280;2022-07-31T13:04:31;29.30;73.70
26262;DHT22;13988;52.446;13.280;2022-07-31T13:06:57;29.30;74.10
26262;DHT22;13988;52.446;13.280;2022-07-31T13:09:22;29.20;71.00
26262;DHT22;13988;52.446;13.280;2022-07-31T13:11:48;28.40;74.50
26262;DHT22;13988;52.446;13.280;2022-07-31T13:14:19;27.00;77.30
26262;DHT22;13988;52.446;13.280;2022-07-31T13:16:45;26.60;78.50
26262;DHT22;13988;52.446;13.280;2022-07-31T13:19:11;28.70;76.80
26262;DHT22;13988;52.446;13.280;2022-07-31T13:21:37;28.80;73.40
26262;DHT22;13988;52.446;13.280;2022-07-31T13:24:03;28.60;69.10
26262;DHT22;13988;52.446;13.280;2022-07-31T13:26:36;29.60;69.00
26262;DHT22;13988;52.446;13.280;2022-07-31T13:29:02;30.80;67.00
26262;DHT22;13988;52.446;13.280;2022-07-31T13:31:28;31.20;64.40
26262;DHT22;13988;52.446;13.280;2022-07-31T13:33:55;30.60;63.00
26262;DHT22;13988;52.446;13.280;2022-07-31T13:36:20;29.90;61.60
26262;DHT22;13988;52.446;13.280;2022-07-31T13:38:46;30.10;62.70
26262;DHT22;13988;52.446;13.280;2022-07-31T13:41:12;29.20;62.10
26262;DHT22;13988;52.446;13.280;2022-07-31T13:43:57;28.10;64.40
26262;DHT22;13988;52.446;13.280;2022-07-31T13:46:24;29.50;63.50
26262;DHT22;13988;52.446;13.280;2022-07-31T13:48:51;30.10;60.70
26262;DHT22;13988;52.446;13.280;2022-07-31T13:51:17;30.10;60.30
26262;DHT22;13988;52.446;13.280;2022-07-31T13:53:43;28.80;62.30
26262;DHT22;13988;52.446;13.280;2022-07-31T13:56:09;28.90;63.50
26262;DHT22;13988;52.446;13.280;2022-07-31T13:58:35;29.50;63.10
26262;DHT22;13988;52.446;13.280;2022-07-31T14:01:01;30.30;60.70
26262;DHT22;13988;52.446;13.280;2022-07-31T14:03:27;30.10;61.40
26262;DHT22;13988;52.446;13.280;2022-07-31T14:05:53;30.90;59.20
26262;DHT22;13988;52.446;13.280;2022-07-31T14:08:19;30.60;58.10
26262;DHT22;13988;52.446;13.280;2022-07-31T14:10:47;31.10;57.20
26262;DHT22;13988;52.446;13.280;2022-07-31T14:13:12;31.20;57.30
26262;DHT22;13988;52.446;13.280;2022-07-31T14:15:38;31.40;56.80
26262;DHT22;13988;52.446;13.280;2022-07-31T14:18:04;31.30;55.50
26262;DHT22;13988;52.446;13.280;2022-07-31T14:20:30;31.00;57.00
26262;DHT22;13988;52.446;13.280;2022-07-31T14:22:58;29.50;56.60
26262;DHT22;13988;52.446;13.280;2022-07-31T14:25:24;29.60;57.70
26262;DHT22;13988;52.446;13.280;2022-07-31T14:27:49;30.10;56.50
26262;DHT22;13988;52.446;13.280;2022-07-31T14:30:17;30.20;56.50
26262;DHT22;13988;52.446;13.280;2022-07-31T14:32:43;30.20;56.70
26262;DHT22;13988;52.446;13.280;2022-07-31T14:35:09;30.40;56.20
26262;DHT22;13988;52.446;13.280;2022-07-31T14:37:35;30.10;56.80
26262;DHT22;13988;52.446;13.280;2022-07-31T14:40:01;30.40;56.10
26262;DHT22;13988;52.446;13.280;2022-07-31T14:42:26;30.40;55.40
26262;DHT22;13988;52.446;13.280;2022-07-31T14:44:52;29.70;57.10
26262;DHT22;13988;52.446;13.280;2022-07-31T14:47:18;29.50;57.20
26262;DHT22;13988;52.446;13.280;2022-07-31T14:49:43;29.50;57.60
26262;DHT22;13988;52.446;13.280;2022-07-31T14:52:09;29.50;56.40
26262;DHT22;13988;52.446;13.280;2022-07-31T14:54:35;29.30;58.50
26262;DHT22;13988;52.446;13.280;2022-07-31T14:57:00;30.00;57.20
26262;DHT22;13988;52.446;13.280;2022-07-31T14:59:27;30.00;56.60
26262;DHT22;13988;52.446;13.280;2022-07-31T15:01:53;30.00;55.90
26262;DHT22;13988;52.446;13.280;2022-07-31T15:04:19;29.70;56.40
26262;DHT22;13988;52.446;13.280;2022-07-31T15:06:45;29.20;57.20
26262;DHT22;13988;52.446;13.280;2022-07-31T15:09:11;28.20;59.00
26262;DHT22;13988;52.446;13.280;2022-07-31T15:11:37;28.50;60.60
26262;DHT22;13988;52.446;13.280;2022-07-31T15:14:03;28.30;58.20
26262;DHT22;13988;52.446;13.280;2022-07-31T15:16:29;27.90;58.50
26262;DHT22;13988;52.446;13.280;2022-07-31T15:18:55;28.40;58.80
26262;DHT22;13988;52.446;13.280;2022-07-31T15:21:20;28.80;57.00
26262;DHT22;13988;52.446;13.280;2022-07-31T15:23:46;28.90;57.00
26262;DHT22;13988;52.446;13.280;2022-07-31T15:26:12;29.10;56.30
26262;DHT22;13988;52.446;13.280;2022-07-31T15:28:37;29.20;56.30
26262;DHT22;13988;52.446;13.280;2022-07-31T15:31:04;29.80;56.50
26262;DHT22;13988;52.446;13.280;2022-07-31T15:33:30;29.30;56.50